sensor_id;sensor_type;location;lat;lon;timestamp;pressure;altitude;pressure_sealevel;temperature;humidity
10097;BME280;5087;42.662;23.466;2023-08-20T00:02:02;95628.81;;;18.61;100.00
10097;BME280;5087;42.662;23.466;2023-08-20T00:04:31;95622.66;;;18.28;100.00
10097;BME280;5087;42.662;23.466;2023-08-20T00:07:04;95634.19;;;17.98;100.00
10097;BME280;5087;42.662;23.466;2023-08-20T00:09:33;95635.38;;;17.65;100.00
10097;BME280;5087;42.662;23.466;2023-08-20T00:12:00;95645.13;;;17.47;100.00
10097;BME280;5087;42.662;23.466;2023-08-20T00:14:54;95644.31;;;17.30;100.00
10097;BME280;5087;42.662;23.466;2023-08-20T00:17:22;95635.81;;;17.19;100.00
10097;BME280;5087;42.662;23.466;2023-08-20T00:19:53;95638.47;;;17.16;100.00
10097;BME280;5087;42.662;23.466;2023-08-20T00:22:24;95639.16;;;17.13;100.00
10097;BME280;5087;42.662;23.466;2023-08-20T00:24:52;95641.03;;;17.08;100.00
10097;BME280;5087;42.662;23.466;2023-08-20T00:27:20;95640.34;;;17.12;100.00
10097;BME280;5087;42.662;23.466;2023-08-20T00:29:47;95640.78;;;17.14;100.00
10097;BME280;5087;42.662;23.466;2023-08-20T00:32:14;95638.59;;;17.35;100.00
10097;BME280;5087;42.662;23.466;2023-08-20T00:34:42;95637.50;;;17.24;100.00
10097;BME280;5087;42.662;23.466;2023-08-20T00:37:11;95631.94;;;17.20;100.00
10097;BME280;5087;42.662;23.466;2023-08-20T00:39:39;95641.41;;;17.23;100.00
10097;BME280;5087;42.662;23.466;2023-08-20T00:42:07;95649.56;;;17.35;100.00
10097;BME280;5087;42.662;23.466;2023-08-20T00:44:34;95637.09;;;17.38;100.00
10097;BME280;5087;42.662;23.466;2023-08-20T00:47:02;95622.66;;;17.25;100.00
10097;BME280;5087;42.662;23.466;2023-08-20T00:49:32;95633.88;;;17.36;100.00
10097;BME280;5087;42.662;23.466;2023-08-20T00:51:59;95638.69;;;17.39;100.00
10097;BME280;5087;42.662;23.466;2023-08-20T00:54:27;95632.19;;;17.31;100.00
10097;BME280;5087;42.662;23.466;2023-08-20T00:56:58;95638.03;;;17.46;100.00
10097;BME280;5087;42.662;23.466;2023-08-20T00:59:27;95629.44;;;17.47;100.00
10097;BME280;5087;42.662;23.466;2023-08-20T01:01:55;95620.53;;;17.34;100.00
10097;BME280;5087;42.662;23.466;2023-08-20T01:04:24;95631.13;;;17.52;100.00
10097;BME280;5087;42.662;23.466;2023-08-20T01:06:57;95640.72;;;17.58;100.00
10097;BME280;5087;42.662;23.466;2023-08-20T01:09:34;95626.44;;;17.52;100.00
10097;BME280;5087;42.662;23.466;2023-08-20T01:12:10;95619.16;;;17.60;100.00
10097;BME280;5087;42.662;23.466;2023-08-20T01:14:37;95633.50;;;17.69;100.00
10097;BME280;5087;42.662;23.466;2023-08-20T01:17:04;95629.44;;;17.63;100.00
10097;BME280;5087;42.662;23.466;2023-08-20T01:19:32;95628.09;;;17.73;100.00
10097;BME280;5087;42.662;23.466;2023-08-20T01:22:21;95613.50;;;17.69;100.00
10097;BME280;5087;42.662;23.466;2023-08-20T01:25:00;95633.38;;;17.82;100.00
10097;BME280;5087;42.662;23.466;2023-08-20T01:27:42;95631.91;;;17.84;100.00
10097;BME280;5087;42.662;23.466;2023-08-20T01:30:14;95646.34;;;17.81;100.00
10097;BME280;5087;42.662;23.466;2023-08-20T01:32:42;95631.03;;;17.96;100.00
10097;BME280;5087;42.662;23.466;2023-08-20T01:35:12;95633.56;;;17.89;100.00
10097;BME280;5087;42.662;23.466;2023-08-20T01:37:40;95633.13;;;17.87;100.00
10097;BME280;5087;42.662;23.466;2023-08-20T01:40:09;95630.91;;;17.77;100.00
10097;BME280;5087;42.662;23.466;2023-08-20T01:42:37;95630.75;;;17.69;100.00
10097;BME280;5087;42.662;23.466;2023-08-20T01:45:06;95632.34;;;17.70;100.00
10097;BME280;5087;42.662;23.466;2023-08-20T01:47:36;95604.56;;;17.56;100.00
10097;BME280;5087;42.662;23.466;2023-08-20T01:50:03;95624.72;;;17.80;100.00
10097;BME280;5087;42.662;23.466;2023-08-20T01:52:31;95618.50;;;17.83;100.00
10097;BME280;5087;42.662;23.466;2023-08-20T01:54:58;95614.69;;;17.87;100.00
10097;BME280;5087;42.662;23.466;2023-08-20T01:57:26;95617.56;;;17.75;100.00
10097;BME280;5087;42.662;23.466;2023-08-20T01:59:53;95613.84;;;17.67;100.00
10097;BME280;5087;42.662;23.466;2023-08-20T02:02:20;95610.22;;;17.63;100.00
10097;BME280;5087;42.662;23.466;2023-08-20T02:04:49;95604.22;;;17.58;100.00
10097;BME280;5087;42.662;23.466;2023-08-20T02:07:16;95595.97;;;17.58;100.00
10097;BME280;5087;42.662;23.466;2023-08-20T02:09:45;95592.19;;;17.46;100.00
10097;BME280;5087;42.662;23.466;2023-08-20T02:12:12;95591.47;;;17.49;100.00
10097;BME280;5087;42.662;23.466;2023-08-20T02:14:40;95583.50;;;17.44;100.00
10097;BME280;5087;42.662;23.466;2023-08-20T02:17:07;95589.97;;;17.36;100.00
10097;BME280;5087;42.662;23.466;2023-08-20T02:19:35;95593.25;;;17.42;100.00
10097;BME280;5087;42.662;23.466;2023-08-20T02:22:04;95586.34;;;17.48;100.00
10097;BME280;5087;42.662;23.466;2023-08-20T02:24:34;95586.06;;;17.53;100.00
10097;BME280;5087;42.662;23.466;2023-08-20T02:27:01;95591.13;;;17.51;100.00
10097;BME280;5087;42.662;23.466;2023-08-20T02:29:28;95589.34;;;17.59;100.00
10097;BME280;5087;42.662;23.466;2023-08-20T02:31:55;95591.38;;;17.46;100.00
10097;BME280;5087;42.662;23.466;2023-08-20T02:34:23;95589.63;;;17.37;100.00
10097;BME280;5087;42.662;23.466;2023-08-20T02:36:50;95596.00;;;17.42;100.00
10097;BME280;5087;42.662;23.466;2023-08-20T02:39:20;95596.97;;;17.33;100.00
10097;BME280;5087;42.662;23.466;2023-08-20T02:41:47;95591.84;;;17.16;100.00
10097;BME280;5087;42.662;23.466;2023-08-20T02:44:15;95593.88;;;17.03;100.00
10097;BME280;5087;42.662;23.466;2023-08-20T02:46:42;95590.81;;;16.92;100.00
10097;BME280;5087;42.662;23.466;2023-08-20T02:49:10;95586.84;;;16.89;100.00
10097;BME280;5087;42.662;23.466;2023-08-20T02:51:38;95589.59;;;16.89;100.00
10097;BME280;5087;42.662;23.466;2023-08-20T02:54:07;95586.75;;;16.86;100.00
10097;BME280;5087;42.662;23.466;2023-08-20T02:56:35;95600.47;;;16.86;100.00
10097;BME280;5087;42.662;23.466;2023-08-20T02:59:03;95598.00;;;16.81;100.00
10097;BME280;5087;42.662;23.466;2023-08-20T03:01:33;95595.50;;;16.75;100.00
10097;BME280;5087;42.662;23.466;2023-08-20T03:04:00;95578.34;;;16.78;100.00
10097;BME280;5087;42.662;23.466;2023-08-20T03:06:27;95598.00;;;16.81;100.00
10097;BME280;5087;42.662;23.466;2023-08-20T03:08:54;95596.53;;;16.99;100.00
10097;BME280;5087;42.662;23.466;2023-08-20T03:11:21;95590.81;;;16.92;100.00
10097;BME280;5087;42.662;23.466;2023-08-20T03:13:50;95601.69;;;17.01;100.00
10097;BME280;5087;42.662;23.466;2023-08-20T03:16:17;95608.78;;;16.89;100.00
10097;BME280;5087;42.662;23.466;2023-08-20T03:18:44;95598.94;;;16.72;100.00
10097;BME280;5087;42.662;23.466;2023-08-20T03:21:12;95593.59;;;16.64;100.00
10097;BME280;5087;42.662;23.466;2023-08-20T03:23:39;95577.25;;;16.51;100.00
10097;BME280;5087;42.662;23.466;2023-08-20T03:26:06;95594.72;;;16.46;100.00
10097;BME280;5087;42.662;23.466;2023-08-20T03:28:34;95585.63;;;16.42;100.00
10097;BME280;5087;42.662;23.466;2023-08-20T03:31:02;95592.72;;;16.31;100.00
10097;BME280;5087;42.662;23.466;2023-08-20T03:33:35;95604.50;;;16.32;100.00
10097;BME280;5087;42.662;23.466;2023-08-20T03:36:02;95596.66;;;16.18;100.00
10097;BME280;5087;42.662;23.466;2023-08-20T03:38:29;95596.81;;;16.09;100.00
10097;BME280;5087;42.662;23.466;2023-08-20T03:40:56;95591.16;;;15.89;100.00
10097;BME280;5087;42.662;23.466;2023-08-20T03:43:25;95599.94;;;15.95;100.00
10097;BME280;5087;42.662;23.466;2023-08-20T03:45:53;95606.31;;;15.87;100.00
10097;BME280;5087;42.662;23.466;2023-08-20T03:48:22;95579.75;;;15.75;100.00
10097;BME280;5087;42.662;23.466;2023-08-20T03:50:49;95593.31;;;15.71;100.00
10097;BME280;5087;42.662;23.466;2023-08-20T03:53:16;95596.09;;;15.59;100.00
10097;BME280;5087;42.662;23.466;2023-08-20T03:55:47;95594.25;;;15.50;100.00
10097;BME280;5087;42.662;23.466;2023-08-20T03:58:15;95596.44;;;15.45;100.00
10097;BME280;5087;42.662;23.466;2023-08-20T04:00:43;95588.56;;;15.31;100.00
10097;BME280;5087;42.662;23.466;2023-08-20T04:03:11;95584.56;;;15.41;100.00
10097;BME280;5087;42.662;23.466;2023-08-20T04:05:40;95583.09;;;15.43;100.00
10097;BME280;5087;42.662;23.466;2023-08-20T04:08:08;95598.03;;;15.46;100.00
10097;BME280;5087;42.662;23.466;2023-08-20T04:10:37;95591.19;;;15.52;100.00
10097;BME280;5087;42.662;23.466;2023-08-20T04:13:08;95601.66;;;15.62;100.00
10097;BME280;5087;42.662;23.466;2023-08-20T04:15:36;95597.13;;;15.54;100.00
10097;BME280;5087;42.662;23.466;2023-08-20T04:18:03;95576.25;;;15.37;100.00
10097;BME280;5087;42.662;23.466;2023-08-20T04:20:32;95600.41;;;15.47;100.00
10097;BME280;5087;42.662;23.466;2023-08-20T04:23:04;95575.91;;;15.39;100.00
10097;BME280;5087;42.662;23.466;2023-08-20T04:25:31;95582.63;;;15.54;100.00
10097;BME280;5087;42.662;23.466;2023-08-20T04:27:59;95595.84;;;15.64;100.00
10097;BME280;5087;42.662;23.466;2023-08-20T04:30:27;95582.94;;;15.64;100.00
10097;BME280;5087;42.662;23.466;2023-08-20T04:32:54;95596.53;;;15.73;100.00
10097;BME280;5087;42.662;23.466;2023-08-20T04:35:22;95591.91;;;16.02;100.00
10097;BME280;5087;42.662;23.466;2023-08-20T04:37:50;95590.03;;;16.19;100.00
10097;BME280;5087;42.662;23.466;2023-08-20T04:40:20;95597.13;;;16.20;100.00
10097;BME280;5087;42.662;23.466;2023-08-20T04:42:47;95597.84;;;16.33;100.00
10097;BME280;5087;42.662;23.466;2023-08-20T04:45:15;95597.31;;;16.55;100.00
10097;BME280;5087;42.662;23.466;2023-08-20T04:47:46;95607.28;;;16.92;100.00
10097;BME280;5087;42.662;23.466;2023-08-20T04:50:14;95606.78;;;17.18;100.00
10097;BME280;5087;42.662;23.466;2023-08-20T04:52:42;95585.91;;;17.30;100.00
10097;BME280;5087;42.662;23.466;2023-08-20T04:55:10;95608.91;;;17.41;100.00
10097;BME280;5087;42.662;23.466;2023-08-20T04:57:39;95606.97;;;17.42;100.00
10097;BME280;5087;42.662;23.466;2023-08-20T05:00:08;95596.34;;;17.40;100.00
10097;BME280;5087;42.662;23.466;2023-08-20T05:03:04;95606.53;;;17.07;100.00
10097;BME280;5087;42.662;23.466;2023-08-20T05:05:33;95605.75;;;16.78;100.00
10097;BME280;5087;42.662;23.466;2023-08-20T05:08:01;95614.25;;;16.73;100.00
10097;BME280;5087;42.662;23.466;2023-08-20T05:10:28;95622.38;;;16.70;100.00
10097;BME280;5087;42.662;23.466;2023-08-20T05:12:58;95615.63;;;16.67;100.00
10097;BME280;5087;42.662;23.466;2023-08-20T05:15:27;95610.75;;;16.89;100.00
10097;BME280;5087;42.662;23.466;2023-08-20T05:18:15;95612.28;;;17.18;100.00
10097;BME280;5087;42.662;23.466;2023-08-20T05:20:42;95606.53;;;17.39;100.00
10097;BME280;5087;42.662;23.466;2023-08-20T05:23:10;95619.84;;;17.73;100.00
10097;BME280;5087;42.662;23.466;2023-08-20T05:25:37;95600.97;;;17.87;100.00
10097;BME280;5087;42.662;23.466;2023-08-20T05:28:08;95585.56;;;17.83;100.00
10097;BME280;5087;42.662;23.466;2023-08-20T05:30:36;95609.84;;;18.16;100.00
10097;BME280;5087;42.662;23.466;2023-08-20T05:33:04;95620.19;;;18.62;100.00
10097;BME280;5087;42.662;23.466;2023-08-20T05:35:36;95611.06;;;18.58;100.00
10097;BME280;5087;42.662;23.466;2023-08-20T05:38:04;95613.31;;;18.72;100.00
10097;BME280;5087;42.662;23.466;2023-08-20T05:40:34;95613.09;;;19.01;100.00
10097;BME280;5087;42.662;23.466;2023-08-20T05:43:03;95624.53;;;19.03;100.00
10097;BME280;5087;42.662;23.466;2023-08-20T05:45:32;95624.94;;;18.85;100.00
10097;BME280;5087;42.662;23.466;2023-08-20T05:48:04;95622.19;;;18.85;100.00
10097;BME280;5087;42.662;23.466;2023-08-20T05:50:32;95620.75;;;18.91;100.00
10097;BME280;5087;42.662;23.466;2023-08-20T05:53:00;95630.91;;;18.87;100.00
10097;BME280;5087;42.662;23.466;2023-08-20T05:55:29;95629.69;;;18.65;100.00
10097;BME280;5087;42.662;23.466;2023-08-20T05:57:56;95625.56;;;18.94;100.00
10097;BME280;5087;42.662;23.466;2023-08-20T06:00:23;95634.13;;;19.12;100.00
10097;BME280;5087;42.662;23.466;2023-08-20T06:02:52;95621.00;;;19.52;100.00
10097;BME280;5087;42.662;23.466;2023-08-20T06:05:20;95613.19;;;19.54;100.00
10097;BME280;5087;42.662;23.466;2023-08-20T06:07:47;95613.84;;;19.98;100.00
10097;BME280;5087;42.662;23.466;2023-08-20T06:10:15;95624.78;;;19.90;100.00
10097;BME280;5087;42.662;23.466;2023-08-20T06:12:42;95617.94;;;20.07;100.00
10097;BME280;5087;42.662;23.466;2023-08-20T06:15:10;95615.72;;;20.20;100.00
10097;BME280;5087;42.662;23.466;2023-08-20T06:17:37;95618.59;;;19.97;100.00
10097;BME280;5087;42.662;23.466;2023-08-20T06:20:07;95620.47;;;20.20;100.00
10097;BME280;5087;42.662;23.466;2023-08-20T06:22:36;95609.16;;;19.98;100.00
10097;BME280;5087;42.662;23.466;2023-08-20T06:25:04;95610.75;;;19.99;100.00
10097;BME280;5087;42.662;23.466;2023-08-20T06:27:32;95630.50;;;20.35;100.00
10097;BME280;5087;42.662;23.466;2023-08-20T06:29:59;95641.28;;;20.48;100.00
10097;BME280;5087;42.662;23.466;2023-08-20T06:32:27;95637.41;;;20.52;100.00
10097;BME280;5087;42.662;23.466;2023-08-20T06:34:54;95625.38;;;20.98;100.00
10097;BME280;5087;42.662;23.466;2023-08-20T06:37:24;95628.63;;;20.43;100.00
10097;BME280;5087;42.662;23.466;2023-08-20T06:39:51;95634.00;;;20.63;100.00
10097;BME280;5087;42.662;23.466;2023-08-20T06:42:19;95628.78;;;20.58;100.00
10097;BME280;5087;42.662;23.466;2023-08-20T06:44:46;95630.06;;;20.64;100.00
10097;BME280;5087;42.662;23.466;2023-08-20T06:47:14;95621.13;;;21.08;100.00
10097;BME280;5087;42.662;23.466;2023-08-20T06:49:41;95621.03;;;21.42;100.00
10097;BME280;5087;42.662;23.466;2023-08-20T06:52:08;95625.97;;;21.63;100.00
10097;BME280;5087;42.662;23.466;2023-08-20T06:54:37;95623.72;;;22.39;100.00
10097;BME280;5087;42.662;23.466;2023-08-20T06:57:04;95625.06;;;22.89;100.00
10097;BME280;5087;42.662;23.466;2023-08-20T06:59:34;95610.09;;;23.12;100.00
10097;BME280;5087;42.662;23.466;2023-08-20T07:02:01;95626.78;;;23.91;100.00
10097;BME280;5087;42.662;23.466;2023-08-20T07:04:29;95632.63;;;24.40;100.00
10097;BME280;5087;42.662;23.466;2023-08-20T07:06:56;95612.88;;;25.20;100.00
10097;BME280;5087;42.662;23.466;2023-08-20T07:09:24;95621.50;;;25.40;100.00
10097;BME280;5087;42.662;23.466;2023-08-20T07:11:52;95620.59;;;25.50;100.00
10097;BME280;5087;42.662;23.466;2023-08-20T07:14:20;95613.00;;;25.62;100.00
10097;BME280;5087;42.662;23.466;2023-08-20T07:16:47;95612.31;;;26.34;100.00
10097;BME280;5087;42.662;23.466;2023-08-20T07:19:14;95610.28;;;26.38;100.00
10097;BME280;5087;42.662;23.466;2023-08-20T07:21:41;95610.25;;;27.07;100.00
10097;BME280;5087;42.662;23.466;2023-08-20T07:24:09;95608.22;;;26.80;100.00
10097;BME280;5087;42.662;23.466;2023-08-20T07:26:43;95596.75;;;26.71;100.00
10097;BME280;5087;42.662;23.466;2023-08-20T07:29:12;95587.75;;;26.94;100.00
10097;BME280;5087;42.662;23.466;2023-08-20T07:31:39;95599.94;;;27.59;100.00
10097;BME280;5087;42.662;23.466;2023-08-20T07:34:06;95600.22;;;27.13;100.00
10097;BME280;5087;42.662;23.466;2023-08-20T07:36:34;95601.63;;;27.53;97.60
10097;BME280;5087;42.662;23.466;2023-08-20T07:39:01;95607.13;;;28.07;94.97
10097;BME280;5087;42.662;23.466;2023-08-20T07:41:28;95599.50;;;27.60;93.31
10097;BME280;5087;42.662;23.466;2023-08-20T07:43:56;95607.53;;;26.69;100.00
10097;BME280;5087;42.662;23.466;2023-08-20T07:46:24;95597.75;;;26.57;94.94
10097;BME280;5087;42.662;23.466;2023-08-20T07:48:52;95609.28;;;26.55;95.04
10097;BME280;5087;42.662;23.466;2023-08-20T07:51:19;95616.75;;;26.97;91.84
10097;BME280;5087;42.662;23.466;2023-08-20T07:53:47;95596.16;;;26.91;94.45
10097;BME280;5087;42.662;23.466;2023-08-20T07:56:14;95598.19;;;27.92;89.15
10097;BME280;5087;42.662;23.466;2023-08-20T07:58:41;95577.63;;;28.06;85.70
10097;BME280;5087;42.662;23.466;2023-08-20T08:01:13;95579.00;;;28.58;82.56
10097;BME280;5087;42.662;23.466;2023-08-20T08:03:41;95590.94;;;27.47;84.96
10097;BME280;5087;42.662;23.466;2023-08-20T08:06:10;95585.22;;;28.26;86.01
10097;BME280;5087;42.662;23.466;2023-08-20T08:08:41;95589.50;;;28.10;78.26
10097;BME280;5087;42.662;23.466;2023-08-20T08:11:08;95590.69;;;28.73;74.59
10097;BME280;5087;42.662;23.466;2023-08-20T08:13:36;95577.09;;;28.55;76.33
10097;BME280;5087;42.662;23.466;2023-08-20T08:16:03;95586.44;;;28.25;80.15
10097;BME280;5087;42.662;23.466;2023-08-20T08:18:30;95590.81;;;28.26;75.07
10097;BME280;5087;42.662;23.466;2023-08-20T08:20:59;95592.06;;;27.54;74.10
10097;BME280;5087;42.662;23.466;2023-08-20T08:23:27;95588.72;;;27.35;75.58
10097;BME280;5087;42.662;23.466;2023-08-20T08:25:54;95587.34;;;27.74;69.23
10097;BME280;5087;42.662;23.466;2023-08-20T08:28:21;95581.00;;;27.94;58.44
10097;BME280;5087;42.662;23.466;2023-08-20T08:30:48;95596.78;;;28.04;58.79
10097;BME280;5087;42.662;23.466;2023-08-20T08:33:16;95586.22;;;28.96;58.55
10097;BME280;5087;42.662;23.466;2023-08-20T08:35:43;95584.88;;;28.44;58.94
10097;BME280;5087;42.662;23.466;2023-08-20T08:38:12;95558.97;;;28.43;63.12
10097;BME280;5087;42.662;23.466;2023-08-20T08:40:41;95579.94;;;28.52;64.07
10097;BME280;5087;42.662;23.466;2023-08-20T08:43:10;95575.72;;;28.84;63.61
10097;BME280;5087;42.662;23.466;2023-08-20T08:45:46;95567.06;;;28.58;61.68
10097;BME280;5087;42.662;23.466;2023-08-20T08:48:14;95580.53;;;28.23;56.74
10097;BME280;5087;42.662;23.466;2023-08-20T08:50:43;95569.94;;;28.74;57.81
10097;BME280;5087;42.662;23.466;2023-08-20T08:53:11;95578.56;;;29.17;54.39
10097;BME280;5087;42.662;23.466;2023-08-20T08:55:40;95571.47;;;29.12;55.61
10097;BME280;5087;42.662;23.466;2023-08-20T08:58:07;95570.78;;;28.71;54.25
10097;BME280;5087;42.662;23.466;2023-08-20T09:00:34;95574.75;;;28.90;54.10
10097;BME280;5087;42.662;23.466;2023-08-20T09:03:04;95568.94;;;28.45;52.57
10097;BME280;5087;42.662;23.466;2023-08-20T09:05:31;95574.38;;;28.52;52.74
10097;BME280;5087;42.662;23.466;2023-08-20T09:07:58;95586.38;;;28.89;53.02
10097;BME280;5087;42.662;23.466;2023-08-20T09:10:27;95569.94;;;28.74;54.36
10097;BME280;5087;42.662;23.466;2023-08-20T09:12:55;95578.53;;;28.43;52.50
10097;BME280;5087;42.662;23.466;2023-08-20T09:15:34;95562.34;;;28.15;51.40
10097;BME280;5087;42.662;23.466;2023-08-20T09:18:02;95553.00;;;29.18;52.01
10097;BME280;5087;42.662;23.466;2023-08-20T09:20:36;95561.84;;;29.50;50.63
10097;BME280;5087;42.662;23.466;2023-08-20T09:23:04;95561.16;;;28.93;50.93
10097;BME280;5087;42.662;23.466;2023-08-20T09:25:38;95558.50;;;29.22;51.06
10097;BME280;5087;42.662;23.466;2023-08-20T09:28:11;95561.50;;;29.31;51.24
10097;BME280;5087;42.662;23.466;2023-08-20T09:30:39;95570.72;;;29.28;50.02
10097;BME280;5087;42.662;23.466;2023-08-20T09:33:10;95574.78;;;29.44;49.70
10097;BME280;5087;42.662;23.466;2023-08-20T09:35:48;95573.22;;;29.43;48.65
10097;BME280;5087;42.662;23.466;2023-08-20T09:38:19;95556.63;;;29.35;50.60
10097;BME280;5087;42.662;23.466;2023-08-20T09:40:49;95574.38;;;29.25;49.54
10097;BME280;5087;42.662;23.466;2023-08-20T09:43:18;95567.25;;;29.74;49.28
10097;BME280;5087;42.662;23.466;2023-08-20T09:45:47;95568.84;;;29.58;48.88
10097;BME280;5087;42.662;23.466;2023-08-20T09:48:18;95563.75;;;29.69;48.77
10097;BME280;5087;42.662;23.466;2023-08-20T09:50:47;95556.25;;;29.33;49.40
10097;BME280;5087;42.662;23.466;2023-08-20T09:53:22;95566.13;;;29.71;49.36
10097;BME280;5087;42.662;23.466;2023-08-20T09:55:56;95550.66;;;29.50;50.47
10097;BME280;5087;42.662;23.466;2023-08-20T09:58:27;95557.22;;;29.43;50.11
10097;BME280;5087;42.662;23.466;2023-08-20T10:00:57;95559.53;;;29.78;50.54
10097;BME280;5087;42.662;23.466;2023-08-20T10:03:24;95558.88;;;29.41;51.13
10097;BME280;5087;42.662;23.466;2023-08-20T10:05:51;95564.09;;;29.22;51.77
10097;BME280;5087;42.662;23.466;2023-08-20T10:08:19;95539.44;;;29.00;50.81
10097;BME280;5087;42.662;23.466;2023-08-20T10:10:47;95558.34;;;29.29;52.91
10097;BME280;5087;42.662;23.466;2023-08-20T10:13:16;95556.44;;;29.92;52.76
10097;BME280;5087;42.662;23.466;2023-08-20T10:15:44;95554.03;;;29.91;49.87
10097;BME280;5087;42.662;23.466;2023-08-20T10:18:12;95559.31;;;29.72;53.18
10097;BME280;5087;42.662;23.466;2023-08-20T10:20:39;95559.53;;;29.78;52.68
10097;BME280;5087;42.662;23.466;2023-08-20T10:23:12;95562.03;;;29.76;50.92
10097;BME280;5087;42.662;23.466;2023-08-20T10:25:42;95558.06;;;30.36;50.49
10097;BME280;5087;42.662;23.466;2023-08-20T10:28:13;95557.78;;;30.00;52.51
10097;BME280;5087;42.662;23.466;2023-08-20T10:31:05;95560.06;;;29.89;52.80
10097;BME280;5087;42.662;23.466;2023-08-20T10:33:38;95562.88;;;30.06;54.09
10097;BME280;5087;42.662;23.466;2023-08-20T10:36:12;95556.72;;;30.11;52.40
10097;BME280;5087;42.662;23.466;2023-08-20T10:38:40;95541.72;;;29.72;52.29
10097;BME280;5087;42.662;23.466;2023-08-20T10:41:08;95545.59;;;29.61;52.43
10097;BME280;5087;42.662;23.466;2023-08-20T10:43:37;95517.38;;;29.39;51.45
10097;BME280;5087;42.662;23.466;2023-08-20T10:46:15;95543.03;;;30.00;49.79
10097;BME280;5087;42.662;23.466;2023-08-20T10:48:47;95534.44;;;30.07;52.68
10097;BME280;5087;42.662;23.466;2023-08-20T10:51:16;95531.53;;;30.11;50.07
10097;BME280;5087;42.662;23.466;2023-08-20T10:54:01;95537.44;;;30.29;49.30
10097;BME280;5087;42.662;23.466;2023-08-20T10:56:48;95534.72;;;30.26;50.13
10097;BME280;5087;42.662;23.466;2023-08-20T10:59:17;95509.44;;;30.42;50.11
10097;BME280;5087;42.662;23.466;2023-08-20T11:01:49;95528.06;;;30.49;49.58
10097;BME280;5087;42.662;23.466;2023-08-20T11:04:18;95515.59;;;31.44;48.14
10097;BME280;5087;42.662;23.466;2023-08-20T11:06:47;95519.28;;;30.76;48.89
10097;BME280;5087;42.662;23.466;2023-08-20T11:09:16;95516.34;;;30.67;48.51
10097;BME280;5087;42.662;23.466;2023-08-20T11:11:44;95503.81;;;31.36;48.92
10097;BME280;5087;42.662;23.466;2023-08-20T11:14:13;95521.50;;;30.26;50.77
10097;BME280;5087;42.662;23.466;2023-08-20T11:16:41;95518.72;;;30.69;50.99
10097;BME280;5087;42.662;23.466;2023-08-20T11:19:10;95508.25;;;30.56;48.74
10097;BME280;5087;42.662;23.466;2023-08-20T11:21:38;95508.19;;;30.73;49.07
10097;BME280;5087;42.662;23.466;2023-08-20T11:24:09;95496.03;;;30.50;48.76
10097;BME280;5087;42.662;23.466;2023-08-20T11:26:40;95502.59;;;30.86;48.56
10097;BME280;5087;42.662;23.466;2023-08-20T11:29:12;95495.09;;;31.21;49.40
10097;BME280;5087;42.662;23.466;2023-08-20T11:31:41;95497.44;;;30.84;49.80
10097;BME280;5087;42.662;23.466;2023-08-20T11:34:11;95499.56;;;30.80;49.69
10097;BME280;5087;42.662;23.466;2023-08-20T11:36:39;95484.13;;;31.14;49.96
10097;BME280;5087;42.662;23.466;2023-08-20T11:39:07;95485.53;;;31.06;48.04
10097;BME280;5087;42.662;23.466;2023-08-20T11:41:36;95492.91;;;31.51;48.85
10097;BME280;5087;42.662;23.466;2023-08-20T11:44:04;95463.28;;;30.47;49.23
10097;BME280;5087;42.662;23.466;2023-08-20T11:46:32;95482.56;;;30.45;49.82
10097;BME280;5087;42.662;23.466;2023-08-20T11:49:01;95484.81;;;30.50;48.84
10097;BME280;5087;42.662;23.466;2023-08-20T11:51:41;95482.97;;;30.86;47.59
10097;BME280;5087;42.662;23.466;2023-08-20T11:54:10;95472.19;;;30.97;48.04
10097;BME280;5087;42.662;23.466;2023-08-20T11:56:44;95470.53;;;30.74;47.34
10097;BME280;5087;42.662;23.466;2023-08-20T11:59:13;95475.78;;;30.85;47.48
10097;BME280;5087;42.662;23.466;2023-08-20T12:01:50;95483.84;;;31.82;46.84
10097;BME280;5087;42.662;23.466;2023-08-20T12:04:17;95465.34;;;31.37;48.50
10097;BME280;5087;42.662;23.466;2023-08-20T12:07:01;95468.47;;;31.39;47.22
10097;BME280;5087;42.662;23.466;2023-08-20T12:09:29;95468.97;;;30.99;48.07
10097;BME280;5087;42.662;23.466;2023-08-20T12:11:56;95463.28;;;31.50;49.11
10097;BME280;5087;42.662;23.466;2023-08-20T12:14:24;95467.25;;;31.01;48.74
10097;BME280;5087;42.662;23.466;2023-08-20T12:16:53;95451.34;;;31.11;48.82
10097;BME280;5087;42.662;23.466;2023-08-20T12:19:21;95464.69;;;30.81;46.69
10097;BME280;5087;42.662;23.466;2023-08-20T12:21:50;95453.41;;;31.46;46.01
10097;BME280;5087;42.662;23.466;2023-08-20T12:24:17;95453.97;;;31.88;46.00
10097;BME280;5087;42.662;23.466;2023-08-20T12:26:46;95445.66;;;31.50;48.33
10097;BME280;5087;42.662;23.466;2023-08-20T12:29:15;95457.41;;;30.97;49.50
10097;BME280;5087;42.662;23.466;2023-08-20T12:31:42;95458.19;;;30.97;48.27
10097;BME280;5087;42.662;23.466;2023-08-20T12:34:09;95455.09;;;31.43;48.83
10097;BME280;5087;42.662;23.466;2023-08-20T12:36:37;95457.28;;;31.00;48.84
10097;BME280;5087;42.662;23.466;2023-08-20T12:39:08;95458.75;;;30.92;48.96
10097;BME280;5087;42.662;23.466;2023-08-20T12:41:36;95437.53;;;31.04;46.82
10097;BME280;5087;42.662;23.466;2023-08-20T12:44:08;95451.91;;;31.06;47.67
10097;BME280;5087;42.662;23.466;2023-08-20T12:46:36;95433.53;;;30.92;49.06
10097;BME280;5087;42.662;23.466;2023-08-20T12:49:04;95435.78;;;30.58;47.60
10097;BME280;5087;42.662;23.466;2023-08-20T12:51:32;95444.41;;;31.16;47.40
10097;BME280;5087;42.662;23.466;2023-08-20T12:53:59;95425.41;;;31.33;46.67
10097;BME280;5087;42.662;23.466;2023-08-20T12:56:28;95438.44;;;31.62;48.96
10097;BME280;5087;42.662;23.466;2023-08-20T12:58:55;95440.78;;;31.63;47.28
10097;BME280;5087;42.662;23.466;2023-08-20T13:01:23;95443.50;;;31.67;46.26
10097;BME280;5087;42.662;23.466;2023-08-20T13:03:50;95413.94;;;31.40;46.72
10097;BME280;5087;42.662;23.466;2023-08-20T13:06:18;95429.63;;;31.50;46.46